x

Gulf Of Maine - 78 Nm East Of Portsmouth, Nh (44005) Wave Buoy

10:50 - Sun 25th Sep 2016 All times are EDT. -4 hours from GMT.

  • Sig Wave height 3.9ft
  • Swell Direction
  • Peak Period 5s
  • Average Period 4s
  • Wind
    18mph, 22mph gusts
  • Sea Temp 60°f
  • Air Temp 56°f
  • Sea Pressure 1020.7mb
  • Gulf Of Maine - 78 Nm East Of Portsmouth, Nh
  • Gulf Of Maine - 78 Nm East Of Portsmouth, Nh

More Historic Weather Station data

Upgrade to MSW Pro to gain access to the past 30 days of data for over 8000 Wavebouys and Weather Stations around the globe.

Join Pro

Comparision Forecast

View Surf forecast
   
dim. 09/25 10:50 4ft 5s 4s 18 22 mph 1020.7mb 60f 56f
9:50 4.5ft 5s 4s 22 25 mph 1020.2mb 60f 57f
8:50 4.5ft 5s 4s 20 25 mph 1019.7mb 60f 57f
7:50 4ft 5s 4s 20 27 mph 1019.1mb 60f 58f
6:50 4ft 5s 4s 20 27 mph 1018.3mb 60f 58f
5:50 3.5ft 5s 4s 20 25 mph 1017.4mb 60f 58f
4:50 3ft 12s 4s 13 20 mph 1017.2mb 60f 57f
3:50 3.5ft 12s 4s 18 22 mph 1017mb 60f 58f
2:50 3.5ft 13s 4s 20 22 mph 1016.9mb 60f 56f
1:50 4ft 5s 4s 18 22 mph 1017.3mb 60f 55f
12:50 4.5ft 6s 5s 22 27 mph 1017.7mb 59f 55f
11:50 5ft 6s 5s 20 27 mph 1017.6mb 60f 54f
10:50 5ft 5s 5s 25 29 mph 1017.4mb 60f 53f
9:50 4.5ft 6s 5s 25 29 mph 1017.4mb 60f 53f
8:50 5ft 5s 5s 22 27 mph 1017.3mb 60f 53f
7:50 5ft 5s 4s 25 29 mph 1017.1mb 59f 53f
6:50 4.5ft 5s 4s 22 27 mph 1017.2mb 59f 53f
5:50 5ft 5s 4s 22 29 mph 1017mb 59f 53f
4:50 4.5ft 5s 4s 25 29 mph 1016.8mb 60f 53f
3:50 5ft 6s 5s 20 25 mph 1017mb 60f 53f
2:50 5ft 5s 5s 22 29 mph 1017.2mb 60f 54f
1:50 5ft 5s 4s 27 34 mph 1016.7mb 60f 54f
12:50 4.5ft 5s 4s 27 34 mph 1016.6mb 60f 56f
sam. 09/24 11:50 4.5ft 5s 4s 27 31 mph 1016.4mb 60f 58f
10:50 4.5ft 5s 4s 25 31 mph 1016.4mb 60f 60f
9:50 3.5ft 5s 4s 22 27 mph 1016.4mb 60f 60f
8:50 3.5ft 4s 4s 20 22 mph 1016.3mb 60f 61f
7:50 3ft 9s 4s 20 25 mph 1016.7mb 61f 61f
6:50 2.5ft 9s 5s 18 22 mph 1016.3mb 61f 61f
5:50 2ft 10s 5s 9 11 mph 1016.2mb 61f 60f
4:50 2.5ft 10s 5s 7 9 mph 1016.6mb 61f 59f
3:50 2.5ft 10s 5s 9
mph
1016.8mb 61f 58f
2:50 3ft 11s 5s 11 16 mph 1017.1mb 61f 58f
1:50 3ft 11s 5s 11 13 mph 1017.6mb 61f 57f
12:50 3ft 4s 5s 13 16 mph 1018.1mb 61f 56f
11:50 3.5ft 11s 4s 16 20 mph 1018.5mb 60f 56f
10:50 3.5ft 10s 5s 13 16 mph 1018.6mb 60f 56f
9:50 3.5ft 10s 4s 16 20 mph 1018.6mb 60f 56f
8:50 3ft 10s 4s 18 20 mph 1018.4mb 60f 56f
7:50 3ft 10s 5s 16 18 mph 1018.7mb 60f 56f
6:50 2.5ft 9s 5s 13 16 mph 1018.4mb 60f 57f
5:50 3.5ft 10s 5s 11 13 mph 1018.2mb 60f 57f
4:50 3.5ft 5s 5s 11 13 mph 1017.5mb 60f 57f
3:50 3.5ft 5s 5s 13 16 mph 1017.9mb 60f 57f
2:50 4ft 5s 5s 16 20 mph 1018.3mb 60f 57f
1:50 3.5ft 5s 5s 18 20 mph 1018.2mb 61f 57f
12:50 4ft 5s 5s 20 22 mph 1017.9mb 61f 57f
ven. 09/23 11:50 4ft 5s 5s 18 20 mph 1017.7mb 61f 57f
10:50 4ft 4s 4s 18 22 mph 1017.1mb 61f 58f
9:50 4ft 5s 5s 20 25 mph 1017.2mb 61f 58f
8:50 4ft 5s 4s 22 27 mph 1016.9mb 61f 59f
7:50 4.5ft 5s 4s 22 25 mph 1016.5mb 61f 59f
6:50 4.5ft 4s 4s 20 25 mph 1016.1mb 61f 59f
5:50 3.5ft 11s 4s 25 27 mph 1015.4mb 61f 60f
4:50 2.5ft 11s 4s 22 25 mph 1014.7mb 61f 60f
3:50 2.5ft 12s 5s 13 16 mph 1014.2mb 62f 64f
1:50 2.5ft 4s 4s 13 18 mph 1014.4mb 62f 64f
12:50 3ft 11s 5s 11 13 mph 1014mb 62f 65f
11:50 3ft 7s 5s 11 13 mph 1014mb 62f 65f
10:50 3ft 10s 5s 16 18 mph 1015.2mb 62f 65f
8:50 2.5ft 10s 5s 13 16 mph 1015.4mb 61f 65f
7:50 2.5ft 11s 5s 13 16 mph 1015.7mb 62f 65f
6:50 2.5ft 9s 5s 13 16 mph 1015.8mb 62f 65f
5:50 2.5ft 11s 4s 13 16 mph 1015.6mb 62f 65f
4:50 2.5ft 10s 4s 9 11 mph 1016.1mb 62f 65f
3:50 2ft 10s 5s 11 13 mph 1016.3mb 62f 65f
2:50 2ft 11s 4s 13
mph
1016.3mb 62f 65f
1:50 2ft 11s 5s 13 16 mph 1017.1mb 63f 66f
12:50 2ft 10s 5s 13
mph
1017.7mb 63f 66f
jeu. 09/22 11:50 1.6ft 11s 6s 11 13 mph 1018.2mb 63f 66f
10:50 1.6ft 11s 7s 11
mph
1018.8mb 63f 65f
9:50 2ft 10s 8s 9 11 mph 1019mb 63f 66f
8:50 1.6ft 9s 7s 7 9 mph 1019.2mb 64f 65f
7:50 2ft 8s 7s 4 7 mph 1019.5mb 64f 65f
6:50 1.6ft 9s 7s 7
mph
1019.7mb 65f 66f
5:50 1.6ft 9s 7s 2 4 mph 1019.8mb 65f 67f
4:50 2ft 10s 7s 2 4 mph 1019.6mb 65f 67f
3:50 1.6ft 10s 6s 4
mph
1019.9mb 65f 67f
2:50 1.6ft 11s 7s 4
mph
1020.3mb 64f 66f
1:50 1.6ft 11s 7s 4 7 mph 1021mb 65f 66f
12:50 1.6ft 11s 7s 4
mph
1021.5mb 64f 65f
11:50 1.6ft 10s 7s 4
mph
1021.9mb 63f 64f
10:50 1.6ft 10s 7s 4 7 mph 1022.4mb 63f 64f
9:50 1.6ft 10s  -  2 4 mph 1022.3mb 62f 65f
8:50 1.6ft 11s 6s 2 4 mph 1022.3mb 62f 64f
7:50 1.6ft 11s 5s 4
mph
1021.4mb 61f 64f
6:50 2ft 11s 6s 7
mph
1020.9mb 62f 64f
5:50 1.6ft 11s 6s 4 7 mph 1020.6mb 62f 64f
4:50 1.6ft 11s 6s 7 9 mph 1020.4mb 62f 63f
3:50 1.6ft 11s 6s 7
mph
1019.8mb 62f 64f